Time;durP1;ratioP1;P1;durP2;ratioP2;P2;SDS_P1;SDS_P2;PMS_P1;PMS_P2;Temp;Humidity;BMP_temperature;BMP_pressure;BME280_temperature;BME280_humidity;BME280_pressure;Samples;Min_cycle;Max_cycle;Signal;HPM_P1;HPM_P2
2021/10/09 00:00:31;;;;;;;80.03;37.80;;;;;;;10.07;100.00;103069.72;5068638;28;20040;-88
2021/10/09 00:02:56;;;;;;;84.50;36.70;;;;;;;10.02;100.00;103061.16;5067916;28;20055;-87
2021/10/09 00:05:22;;;;;;;81.07;39.13;;;;;;;9.97;100.00;103065.09;5068001;28;20338;-86
2021/10/09 00:07:47;;;;;;;72.83;37.80;;;;;;;9.91;100.00;103061.03;5068260;28;20043;-89
2021/10/09 00:10:23;;;;;;;82.83;37.33;;;;;;;9.71;100.00;103041.81;5038538;28;20032;-88
2021/10/09 00:12:48;;;;;;;76.95;37.65;;;;;;;9.83;100.00;103061.53;5055725;28;20357;-89
2021/10/09 00:15:14;;;;;;;89.50;37.35;;;;;;;9.85;100.00;103054.25;5068711;28;20055;-88
2021/10/09 00:17:40;;;;;;;81.97;38.90;;;;;;;9.72;100.00;103043.56;5067785;28;20036;-88
2021/10/09 00:20:06;;;;;;;85.43;36.20;;;;;;;9.78;100.00;103057.44;5068061;28;20036;-88
2021/10/09 00:22:31;;;;;;;72.78;34.15;;;;;;;9.70;100.00;103049.94;5069000;28;20035;-88
2021/10/09 00:24:57;;;;;;;80.70;39.23;;;;;;;9.70;100.00;103048.13;5051799;28;20072;-87
2021/10/09 00:27:22;;;;;;;84.13;38.40;;;;;;;9.63;100.00;103038.81;5051789;28;20289;-88
2021/10/09 00:29:48;;;;;;;86.65;41.00;;;;;;;9.69;100.00;103058.88;5051398;28;20036;-88
2021/10/09 00:32:15;;;;;;;85.47;39.28;;;;;;;9.66;100.00;103059.94;5051003;28;20115;-88
2021/10/09 00:34:40;;;;;;;76.13;38.27;;;;;;;9.65;100.00;103052.91;5068018;28;20032;-88
2021/10/09 00:37:06;;;;;;;84.33;39.83;;;;;;;9.66;100.00;103054.63;5067768;28;20394;-88
2021/10/09 00:39:31;;;;;;;84.53;39.20;;;;;;;9.62;100.00;103053.13;5067781;28;20068;-88
2021/10/09 00:41:57;;;;;;;83.87;39.23;;;;;;;9.57;100.00;103044.53;5067872;28;20042;-87
2021/10/09 00:44:22;;;;;;;87.87;40.30;;;;;;;9.59;100.00;103058.63;5068243;28;20461;-88
2021/10/09 00:46:48;;;;;;;86.87;39.63;;;;;;;9.61;100.00;103055.88;5069261;28;20125;-88
2021/10/09 00:49:17;;;;;;;84.45;40.67;;;;;;;9.57;100.00;103057.88;5034306;28;20619;-88
2021/10/09 00:51:47;;;;;;;89.47;42.35;;;;;;;9.57;100.00;103063.22;5068671;28;20036;-88
2021/10/09 00:54:15;;;;;;;90.15;41.17;;;;;;;9.49;100.00;103058.38;5067293;28;20039;-88
2021/10/09 00:56:41;;;;;;;95.72;40.75;;;;;;;9.44;100.00;103055.16;5034614;28;20453;-89
2021/10/09 00:59:09;;;;;;;93.85;39.15;;;;;;;9.24;100.00;103037.75;5066879;28;20041;-88
2021/10/09 01:01:34;;;;;;;84.30;38.90;;;;;;;9.24;100.00;103044.91;5067489;28;20037;-88
2021/10/09 01:04:01;;;;;;;71.97;35.65;;;;;;;9.22;100.00;103055.66;5050891;28;20115;-88
2021/10/09 01:06:26;;;;;;;90.10;40.10;;;;;;;9.11;100.00;103042.19;5051855;28;20048;-89
2021/10/09 01:08:52;;;;;;;70.65;35.92;;;;;;;9.12;100.00;103048.38;5071813;28;20105;-89
2021/10/09 01:11:17;;;;;;;86.73;38.80;;;;;;;9.16;100.00;103055.22;5071430;28;20036;-88
2021/10/09 01:13:43;;;;;;;87.93;37.90;;;;;;;9.12;100.00;103049.22;5055198;28;20032;-88
2021/10/09 01:16:19;;;;;;;88.82;39.08;;;;;;;9.06;100.00;103041.59;5072386;28;20029;-88
2021/10/09 01:18:51;;;;;;;105.97;44.13;;;;;;;9.22;100.00;103050.34;5071345;28;20119;-88
2021/10/09 01:21:18;;;;;;;85.50;40.55;;;;;;;9.28;100.00;103059.75;5071290;28;20477;-88
2021/10/09 01:23:46;;;;;;;98.90;42.45;;;;;;;9.37;100.00;103069.84;5071301;28;20465;-87
2021/10/09 01:26:11;;;;;;;91.97;42.00;;;;;;;9.36;100.00;103061.94;5054542;28;20071;-88
2021/10/09 01:28:45;;;;;;;96.05;41.08;;;;;;;9.32;100.00;103065.75;5054681;28;20458;-89
2021/10/09 01:31:11;;;;;;;89.50;40.58;;;;;;;9.27;100.00;103058.91;5071229;28;20052;-88
2021/10/09 01:33:41;;;;;;;91.43;41.17;;;;;;;9.34;100.00;103061.16;5071151;28;20049;-88
2021/10/09 01:36:09;;;;;;;85.88;40.60;;;;;;;9.30;100.00;103052.53;5037867;28;20043;-88
2021/10/09 01:38:40;;;;;;;96.32;39.92;;;;;;;9.22;100.00;103055.66;5070370;28;20029;-88
2021/10/09 01:41:08;;;;;;;84.90;37.72;;;;;;;9.15;100.00;103041.00;5037908;28;20039;-88
2021/10/09 01:43:35;;;;;;;90.28;42.42;;;;;;;9.05;100.00;103037.22;5038563;28;20028;-88
2021/10/09 01:46:01;;;;;;;76.17;37.87;;;;;;;8.99;100.00;103035.81;5037556;28;20132;-88
2021/10/09 01:48:35;;;;;;;83.53;38.30;;;;;;;9.04;100.00;103046.19;5071172;28;20094;-88
2021/10/09 01:51:03;;;;;;;76.03;37.17;;;;;;;8.94;100.00;103045.03;5037443;28;20040;-89
2021/10/09 01:53:29;;;;;;;73.30;36.88;;;;;;;8.81;100.00;103026.31;5070904;28;20184;-88
2021/10/09 01:55:55;;;;;;;80.95;37.92;;;;;;;8.72;100.00;103022.41;5070896;28;20485;-88
2021/10/09 01:58:20;;;;;;;89.53;42.33;;;;;;;8.73;100.00;103024.09;5054227;28;20377;-87
2021/10/09 02:00:46;;;;;;;77.35;35.17;;;;;;;8.66;100.00;103025.44;5053784;28;20553;-88
2021/10/09 02:03:12;;;;;;;86.18;38.92;;;;;;;8.62;100.00;103027.44;5070530;28;20039;-88
2021/10/09 02:05:38;;;;;;;76.82;37.10;;;;;;;8.60;100.00;103020.50;5070368;28;20469;-88
2021/10/09 02:08:04;;;;;;;86.93;39.90;;;;;;;8.64;100.00;103014.03;5070734;28;20032;-87
2021/10/09 02:10:30;;;;;;;;;;;;;;;8.68;100.00;103004.88;5053103;28;20067;-87
2021/10/09 02:13:05;;;;;;;86.60;40.40;;;;;;;8.73;100.00;103004.59;5070787;28;19938;-88
2021/10/09 02:25:50;;;;;;;84.20;40.25;;;;;;;8.52;100.00;102990.81;5070807;28;20451;-87
2021/10/09 02:28:22;;;;;;;88.07;40.33;;;;;;;8.46;100.00;102986.72;5053725;28;20362;-87
2021/10/09 02:30:50;;;;;;;76.72;37.88;;;;;;;8.33;100.00;102975.94;5053564;28;20040;-87
2021/10/09 02:33:18;;;;;;;72.82;36.25;;;;;;;8.43;100.00;102986.94;5053745;28;20028;-87
2021/10/09 02:35:44;;;;;;;86.33;39.60;;;;;;;8.31;100.00;102975.19;5071017;28;20299;-87
2021/10/09 02:38:09;;;;;;;96.22;40.53;;;;;;;8.16;100.00;102957.47;5053234;28;20095;-87
2021/10/09 02:40:38;;;;;;;79.18;38.13;;;;;;;8.33;100.00;102981.25;5052806;28;20051;-88
2021/10/09 02:43:03;;;;;;;85.15;40.83;;;;;;;8.52;100.00;102975.72;5069788;28;20021;-88
2021/10/09 02:45:29;;;;;;;82.38;40.90;;;;;;;8.52;100.00;102982.81;5036865;28;20525;-87
2021/10/09 02:48:00;;;;;;;81.53;40.55;;;;;;;8.55;100.00;102978.19;5052931;28;20038;-87
2021/10/09 02:50:28;;;;;;;80.88;39.35;;;;;;;8.47;100.00;102983.09;5069754;28;20056;-88
2021/10/09 02:52:54;;;;;;;83.82;38.40;;;;;;;8.47;100.00;102993.75;5053113;28;20028;-88
2021/10/09 02:55:20;;;;;;;75.20;36.17;;;;;;;8.39;100.00;102980.03;5069954;28;20443;-87
2021/10/09 02:57:48;;;;;;;80.70;39.53;;;;;;;8.47;100.00;102990.25;5053355;28;20471;-87
2021/10/09 03:00:14;;;;;;;84.93;38.95;;;;;;;8.44;100.00;102997.47;5053020;28;20093;-87
2021/10/09 03:02:40;;;;;;;88.53;38.35;;;;;;;8.20;100.00;102970.50;5069179;28;20054;-87
2021/10/09 03:05:07;;;;;;;94.90;40.57;;;;;;;8.23;100.00;102980.97;5052711;28;20437;-87
2021/10/09 03:07:32;;;;;;;74.15;36.78;;;;;;;8.15;100.00;102985.91;5070123;28;20029;-87
2021/10/09 03:09:58;;;;;;;65.73;34.70;;;;;;;8.05;100.00;102984.72;5052613;28;20021;-87
2021/10/09 03:12:25;;;;;;;72.60;34.97;;;;;;;7.92;100.00;102976.63;5070361;28;20175;-87
2021/10/09 03:14:52;;;;;;;80.50;37.25;;;;;;;7.94;100.00;102976.53;5069461;28;20048;-87
2021/10/09 03:17:18;;;;;;;70.38;33.33;;;;;;;7.90;100.00;102977.66;5069375;28;20029;-87
2021/10/09 03:19:44;;;;;;;87.18;40.00;;;;;;;7.85;100.00;102977.94;5069088;28;20102;-87
2021/10/09 03:22:10;;;;;;;64.50;33.63;;;;;;;7.79;100.00;102970.31;5052775;28;20028;-87
2021/10/09 03:24:36;;;;;;;75.82;34.55;;;;;;;7.68;100.00;102964.75;5052456;28;20524;-87
2021/10/09 03:27:02;;;;;;;70.63;35.53;;;;;;;7.67;100.00;102965.72;5068969;28;20124;-87
2021/10/09 03:29:28;;;;;;;65.50;32.95;;;;;;;7.66;100.00;102985.28;5052135;28;20093;-87
2021/10/09 03:31:54;;;;;;;69.80;33.30;;;;;;;7.50;100.00;102978.16;5052710;28;20039;-86
2021/10/09 03:34:19;;;;;;;72.50;33.60;;;;;;;7.48;100.00;102973.88;5035475;28;20040;-86
2021/10/09 03:36:46;;;;;;;66.43;30.40;;;;;;;7.42;100.00;102977.72;5068842;28;20115;-87
2021/10/09 03:39:17;;;;;;;65.70;32.42;;;;;;;7.36;100.00;102978.09;5068336;28;20531;-86
2021/10/09 03:41:48;;;;;;;80.45;35.13;;;;;;;7.37;100.00;102982.47;5052133;28;20086;-87
2021/10/09 03:44:14;;;;;;;57.20;28.73;;;;;;;7.30;100.00;102973.13;5051691;28;20055;-86
2021/10/09 03:46:44;;;;;;;91.20;38.15;;;;;;;7.32;100.00;102973.91;5051836;28;20544;-86
2021/10/09 03:49:24;;;;;;;74.65;36.33;;;;;;;7.32;100.00;102976.56;5051703;28;20044;-86
2021/10/09 03:54:34;;;;;;;73.57;37.15;;;;;;;7.44;100.00;102989.13;5068199;28;20047;-86
2021/10/09 03:57:00;;;;;;;70.25;36.28;;;;;;;7.35;100.00;102993.19;5068620;28;20545;-85
2021/10/09 03:59:26;;;;;;;86.38;39.40;;;;;;;7.39;100.00;102985.91;5067701;28;20423;-86
2021/10/09 04:01:53;;;;;;;78.78;38.78;;;;;;;7.30;100.00;102984.59;5051545;28;20056;-86
2021/10/09 04:04:18;;;;;;;91.87;37.27;;;;;;;7.28;100.00;102975.00;5068071;28;20115;-86
2021/10/09 04:06:44;;;;;;;81.67;38.83;;;;;;;7.31;100.00;102977.50;5068220;28;20044;-86
2021/10/09 04:09:10;;;;;;;73.15;36.88;;;;;;;7.32;100.00;102982.72;5068083;28;20037;-86
2021/10/09 04:11:36;;;;;;;73.80;35.08;;;;;;;7.24;100.00;102982.31;5067996;28;20028;-85
2021/10/09 04:14:02;;;;;;;72.53;35.43;;;;;;;7.16;100.00;102969.47;5067927;28;20033;-86
2021/10/09 04:16:28;;;;;;;74.35;35.63;;;;;;;7.17;100.00;102987.09;5051414;28;20119;-85
2021/10/09 04:18:54;;;;;;;79.20;38.78;;;;;;;7.18;100.00;102990.63;5051535;28;20124;-85
2021/10/09 04:21:19;;;;;;;77.72;35.15;;;;;;;7.11;100.00;102987.44;5050863;28;20144;-85
2021/10/09 04:23:49;;;;;;;63.20;31.63;;;;;;;7.05;100.00;102989.59;5067883;28;20064;-85
2021/10/09 04:26:18;;;;;;;79.03;35.63;;;;;;;7.05;100.00;102993.09;5067089;28;20429;-85
2021/10/09 04:28:44;;;;;;;75.20;37.30;;;;;;;7.03;100.00;102987.03;5067931;28;20109;-85
2021/10/09 04:31:09;;;;;;;69.25;33.65;;;;;;;6.98;100.00;102994.38;5067328;28;20050;-85
2021/10/09 04:33:35;;;;;;;71.33;34.33;;;;;;;6.83;100.00;102984.59;5034485;28;20453;-85
2021/10/09 04:36:00;;;;;;;66.63;33.73;;;;;;;6.80;100.00;102988.28;5067197;28;20043;-86
2021/10/09 04:38:26;;;;;;;69.90;32.78;;;;;;;6.71;100.00;102989.63;5050961;28;20046;-86
2021/10/09 04:40:52;;;;;;;61.33;30.73;;;;;;;6.69;100.00;102980.88;5050126;28;20103;-84
2021/10/09 04:43:18;;;;;;;73.97;33.75;;;;;;;6.74;100.00;102985.94;5067693;28;20028;-85
2021/10/09 04:45:44;;;;;;;64.18;34.40;;;;;;;6.68;100.00;102984.47;5050387;28;20063;-84
2021/10/09 04:48:10;;;;;;;77.15;36.38;;;;;;;6.83;100.00;102984.59;5067766;28;20044;-85
2021/10/09 04:50:36;;;;;;;;;;;;;;;6.83;100.00;102993.41;5052099;28;20472;-84
2021/10/09 04:53:05;;;;;;;62.13;32.30;;;;;;;6.70;100.00;102979.94;5068238;28;20499;-85
2021/10/09 04:55:30;;;;;;;66.18;31.85;;;;;;;6.68;100.00;102989.78;5050902;28;20029;-84
2021/10/09 04:57:56;;;;;;;60.60;32.70;;;;;;;6.56;100.00;102974.53;5068650;28;20063;-84
2021/10/09 05:00:22;;;;;;;68.28;33.53;;;;;;;6.65;100.00;102989.09;5072575;28;20037;-84
2021/10/09 05:02:48;;;;;;;91.05;37.28;;;;;;;6.61;100.00;102990.22;5080153;28;20029;-84
2021/10/09 05:05:14;;;;;;;58.80;32.13;;;;;;;6.58;100.00;102991.22;5076600;28;20317;-85
2021/10/09 05:07:39;;;;;;;62.27;33.23;;;;;;;6.61;100.00;103006.13;5053372;28;20094;-84
2021/10/09 05:10:07;;;;;;;62.90;31.00;;;;;;;6.58;100.00;103016.88;5053006;28;20036;-84
2021/10/09 05:12:32;;;;;;;68.32;33.45;;;;;;;6.52;100.00;103018.09;5056606;28;20024;-86
2021/10/09 05:14:58;;;;;;;71.03;32.03;;;;;;;6.53;100.00;103007.41;5074849;28;20123;-84
2021/10/09 05:17:24;;;;;;;65.90;32.67;;;;;;;6.54;100.00;103024.16;5056221;28;20147;-86
2021/10/09 05:19:49;;;;;;;59.22;28.60;;;;;;;6.49;100.00;103019.09;5055412;28;20047;-84
2021/10/09 05:22:15;;;;;;;65.20;34.30;;;;;;;6.48;100.00;103012.06;5055394;28;20040;-84
2021/10/09 05:24:41;;;;;;;;;;;;;;;6.58;100.00;103022.19;5056225;28;20029;-84
2021/10/09 05:27:07;;;;;;;65.22;32.65;;;;;;;6.58;100.00;103016.88;5056517;28;20106;-84
2021/10/09 05:29:33;;;;;;;62.15;32.15;;;;;;;6.49;100.00;103012.94;5072750;28;20062;-84
2021/10/09 05:32:06;;;;;;;70.10;33.20;;;;;;;6.43;100.00;103019.41;5071686;28;20066;-83
2021/10/09 05:34:32;;;;;;;55.05;29.50;;;;;;;6.34;100.00;103012.81;5055726;28;20036;-84
2021/10/09 05:36:59;;;;;;;55.65;28.10;;;;;;;6.26;100.00;103011.47;5072476;28;20055;-86
2021/10/09 05:39:25;;;;;;;60.42;31.60;;;;;;;6.20;100.00;103011.78;5038213;28;20131;-85
2021/10/09 05:41:53;;;;;;;62.95;29.67;;;;;;;6.09;100.00;103005.25;5072210;28;20039;-85
2021/10/09 05:44:19;;;;;;;59.37;29.40;;;;;;;6.03;100.00;102996.75;5052900;28;20350;-84
2021/10/09 05:46:45;;;;;;;66.57;33.38;;;;;;;6.12;100.00;103004.22;5052307;28;20446;-85
2021/10/09 05:49:13;;;;;;;75.82;36.20;;;;;;;6.19;100.00;103004.78;5053025;28;20124;-84
2021/10/09 05:51:50;;;;;;;57.33;32.03;;;;;;;6.24;100.00;103008.03;5051872;28;20040;-84
2021/10/09 05:54:27;;;;;;;60.15;29.58;;;;;;;6.29;100.00;103013.97;5056424;28;20082;-83
2021/10/09 05:56:58;;;;;;;57.08;28.75;;;;;;;6.35;100.00;103018.97;5073863;28;20071;-83
2021/10/09 06:25:36;;;;;;;54.58;28.85;;;;;;;6.52;100.00;103034.00;5071873;28;20035;-83
2021/10/09 06:32:29;;;;;;;64.20;30.17;;;;;;;7.50;100.00;103038.47;5070879;28;20024;-85
2021/10/09 06:45:56;;;;;;;41.58;22.48;;;;;;;8.60;100.00;103021.34;5072084;28;20043;-84
2021/10/09 06:59:26;;;;;;;49.47;21.23;;;;;;;8.92;100.00;103014.97;5088866;28;20039;-84
2021/10/09 06:59:40;;;;;;;34.08;19.52;;;;;;;9.48;100.00;103010.47;5071653;28;20027;-83
2021/10/09 07:02:06;;;;;;;36.13;20.00;;;;;;;9.91;100.00;103021.00;5088599;28;20191;-83
2021/10/09 07:04:32;;;;;;;32.45;19.90;;;;;;;10.01;100.00;103026.56;5071199;28;20035;-83
2021/10/09 07:07:03;;;;;;;45.35;19.65;;;;;;;10.18;100.00;103012.91;5071526;28;20048;-83
2021/10/09 07:09:51;;;;;;;33.35;17.30;;;;;;;10.06;99.47;103014.59;5088400;28;20027;-83
2021/10/09 07:12:20;;;;;;;30.13;17.33;;;;;;;10.28;97.00;103013.19;5071431;28;20036;-82
2021/10/09 07:14:46;;;;;;;25.90;16.25;;;;;;;10.11;94.50;103017.84;5088265;28;20031;-82
2021/10/09 07:17:13;;;;;;;33.60;17.23;;;;;;;9.89;94.41;103013.09;5071357;28;20042;-82
2021/10/09 07:19:39;;;;;;;32.72;16.42;;;;;;;10.38;94.04;103029.44;5071304;28;20043;-83
2021/10/09 07:22:04;;;;;;;28.47;14.97;;;;;;;9.90;91.46;103022.81;5071206;28;20036;-82
2021/10/09 07:24:32;;;;;;;23.15;13.20;;;;;;;10.09;90.58;103032.22;5071145;28;20387;-82
2021/10/09 07:26:57;;;;;;;29.63;13.67;;;;;;;10.22;89.57;103030.44;5071026;28;20096;-82
2021/10/09 07:29:23;;;;;;;23.23;14.17;;;;;;;10.29;88.42;103015.75;5071202;28;20954;-82
2021/10/09 07:31:48;;;;;;;25.10;13.95;;;;;;;10.71;88.74;103031.59;5071162;28;20107;-82
2021/10/09 07:34:14;;;;;;;27.30;13.35;;;;;;;10.74;85.65;103001.97;5070804;28;20503;-82
2021/10/09 07:36:39;;;;;;;25.43;13.33;;;;;;;11.45;84.80;103018.25;5089242;28;20042;-82
2021/10/09 07:39:06;;;;;;;29.92;14.25;;;;;;;11.72;82.42;103013.53;5087542;28;20317;-82
2021/10/09 07:41:33;;;;;;;22.95;12.73;;;;;;;11.97;82.49;103022.44;5070966;28;20051;-82
2021/10/09 07:43:58;;;;;;;21.33;12.20;;;;;;;12.75;78.78;103015.53;5070950;28;20039;-83
2021/10/09 07:46:23;;;;;;;23.97;12.53;;;;;;;12.80;76.53;103006.13;5070569;28;20069;-82
2021/10/09 07:48:49;;;;;;;24.33;13.47;;;;;;;12.75;76.43;102994.09;5070791;28;20036;-82
2021/10/09 07:51:14;;;;;;;28.23;12.93;;;;;;;11.58;77.67;103008.38;5087593;28;20031;-83
2021/10/09 07:53:40;;;;;;;32.13;12.30;;;;;;;12.00;78.44;103024.88;5087900;28;20430;-84
2021/10/09 07:56:05;;;;;;;21.90;12.20;;;;;;;12.28;77.06;103020.09;5053858;28;20036;-83
2021/10/09 07:58:32;;;;;;;18.90;11.55;;;;;;;13.19;74.87;103000.41;5087783;28;20354;-84
2021/10/09 08:00:57;;;;;;;18.42;11.25;;;;;;;13.72;72.65;103005.88;5069983;28;20028;-84
2021/10/09 08:03:24;;;;;;;17.47;10.37;;;;;;;14.48;69.60;102997.63;5087545;28;20163;-82
2021/10/09 08:05:52;;;;;;;23.20;11.65;;;;;;;14.05;67.32;102995.97;5070468;28;20435;-83
2021/10/09 08:08:21;;;;;;;27.48;11.27;;;;;;;14.09;67.35;102978.59;5070610;28;20036;-83
2021/10/09 08:10:48;;;;;;;21.67;11.35;;;;;;;14.56;65.12;102992.47;5070363;28;20035;-83
2021/10/09 08:13:15;;;;;;;22.40;12.30;;;;;;;13.87;66.43;102995.69;5070546;28;20111;-84
2021/10/09 08:15:41;;;;;;;22.70;10.57;;;;;;;14.52;66.55;103012.53;5069518;28;20040;-83
2021/10/09 08:18:07;;;;;;;23.98;11.50;;;;;;;14.83;65.50;103010.72;5070110;28;20036;-83
2021/10/09 08:20:33;;;;;;;21.55;10.68;;;;;;;15.11;65.60;103009.09;5088186;28;20123;-83
2021/10/09 08:23:02;;;;;;;22.00;11.73;;;;;;;14.95;63.58;102976.50;5088105;28;20089;-84
2021/10/09 08:35:25;;;;;;;25.83;12.35;;;;;;;14.06;64.45;102989.59;5087691;28;20040;-83
2021/10/09 08:36:38;;;;;;;25.40;12.35;;;;;;;13.72;65.97;103003.19;5069781;28;20036;-84
2021/10/09 08:39:07;;;;;;;18.15;9.95;;;;;;;14.88;64.90;103026.44;5070290;28;20092;-83
2021/10/09 08:41:33;;;;;;;20.40;11.27;;;;;;;14.88;62.63;102992.31;5053414;28;20357;-83
2021/10/09 08:43:58;;;;;;;28.27;12.10;;;;;;;14.59;62.82;102977.94;5086720;28;20036;-83
2021/10/09 08:46:24;;;;;;;21.93;11.80;;;;;;;13.75;64.59;102977.94;5086542;28;20620;-82
2021/10/09 08:48:51;;;;;;;23.02;11.80;;;;;;;14.00;64.09;102982.94;5069662;28;20356;-82
2021/10/09 08:51:26;;;;;;;21.15;10.32;;;;;;;15.25;62.28;102998.94;5069589;28;20024;-83
2021/10/09 08:53:53;;;;;;;19.80;10.55;;;;;;;14.60;62.98;102985.84;5087711;28;20040;-82
2021/10/09 08:56:31;;;;;;;18.65;10.93;;;;;;;15.56;60.65;102976.31;5069425;28;20032;-82
2021/10/09 08:59:07;;;;;;;20.05;10.95;;;;;;;14.31;62.25;102962.31;5069629;28;20036;-82
2021/10/09 09:02:19;;;;;;;22.48;11.20;;;;;;;15.16;60.92;102985.31;5087260;28;20445;-82
2021/10/09 09:04:46;;;;;;;17.42;10.35;;;;;;;15.33;61.13;102969.47;5076179;28;20056;-82
2021/10/09 09:07:25;;;;;;;26.42;10.95;;;;;;;15.14;61.84;102981.91;5069498;28;20059;-83
2021/10/09 09:40:08;;;;;;;25.15;10.32;;;;;;;15.73;55.95;102928.16;5090831;28;20047;-80
2021/10/09 09:42:44;;;;;;;21.50;10.73;;;;;;;15.02;57.03;102915.78;5073275;28;20024;-78
2021/10/09 09:45:13;;;;;;;23.58;11.20;;;;;;;15.36;58.67;102947.69;5089615;28;20128;-80
2021/10/09 09:47:41;;;;;;;19.30;9.73;;;;;;;16.63;56.32;102941.09;5090083;28;20063;-79
2021/10/09 09:50:11;;;;;;;13.18;8.20;;;;;;;17.61;52.16;102922.41;5072736;28;20032;-80
2021/10/09 09:52:39;;;;;;;22.65;9.70;;;;;;;15.49;53.83;102874.72;5072985;28;20102;-80
2021/10/09 09:55:07;;;;;;;17.58;9.00;;;;;;;16.78;53.82;102925.25;5090397;28;20418;-80
2021/10/09 09:57:35;;;;;;;22.50;8.48;;;;;;;16.60;52.20;102894.66;5072721;28;20064;-80
2021/10/09 10:00:03;;;;;;;19.05;9.15;;;;;;;16.46;53.11;102902.28;5072570;28;20032;-79
2021/10/09 10:02:44;;;;;;;20.98;9.52;;;;;;;16.30;50.60;102867.03;5089564;28;20036;-79
2021/10/09 10:05:14;;;;;;;20.70;9.43;;;;;;;17.15;49.44;102878.44;5090016;28;20441;-80
2021/10/09 10:07:40;;;;;;;20.13;8.95;;;;;;;17.13;51.86;102915.53;5089460;28;20032;-80
2021/10/09 10:10:07;;;;;;;16.13;8.20;;;;;;;16.22;48.72;102846.22;5090057;28;20054;-79
2021/10/09 10:12:33;;;;;;;15.77;7.60;;;;;;;15.95;50.53;102873.97;5090436;28;20358;-79
2021/10/09 10:14:59;;;;;;;20.85;7.63;;;;;;;15.70;49.76;102858.41;5072331;28;20101;-79
2021/10/09 10:17:39;;;;;;;;;;;;;;;16.48;49.30;102869.75;5072993;28;20040;-79
2021/10/09 10:20:13;;;;;;;18.50;7.10;;;;;;;16.53;49.13;102855.81;5089081;28;19916;-79
2021/10/09 10:22:39;;;;;;;16.88;6.90;;;;;;;17.15;48.18;102872.22;5072560;28;20028;-79
2021/10/09 10:25:23;;;;;;;16.40;7.15;;;;;;;18.22;47.51;102887.38;5089042;28;20480;-80
2021/10/09 10:28:02;;;;;;;15.10;6.82;;;;;;;17.02;47.94;102851.00;5088996;28;20032;-79
2021/10/09 10:30:33;;;;;;;15.73;6.47;;;;;;;16.56;46.74;102812.41;5089885;28;20027;-79
2021/10/09 10:32:59;;;;;;;12.55;6.05;;;;;;;17.11;45.59;102828.47;5090368;28;20032;-78
2021/10/09 10:35:30;;;;;;;21.53;6.33;;;;;;;16.95;47.41;102855.31;5088870;28;20050;-79
2021/10/09 10:38:01;;;;;;;15.90;7.35;;;;;;;16.05;50.33;102857.75;5088823;28;20031;-78
2021/10/09 10:41:06;;;;;;;16.35;6.97;;;;;;;17.23;48.18;102870.44;5088489;28;20032;-79
2021/10/09 10:43:37;;;;;;;18.90;5.97;;;;;;;17.23;46.91;102854.25;4988442;28;20073;-79
2021/10/09 10:49:01;;;;;;;19.10;5.95;;;;;;;16.69;46.27;102818.25;5088788;28;20131;-79
2021/10/09 10:51:34;;;;;;;16.75;5.72;;;;;;;17.24;46.65;102845.13;5088661;28;20355;-79
2021/10/09 10:57:03;;;;;;;9.52;5.40;;;;;;;17.11;46.70;102855.47;5089539;28;20039;-79
2021/10/09 10:59:33;;;;;;;14.88;6.25;;;;;;;16.79;46.77;102824.47;5088416;28;20032;-78
2021/10/09 11:02:21;;;;;;;20.13;7.63;;;;;;;16.97;47.30;102858.69;5089573;28;20031;-79
2021/10/09 11:04:52;;;;;;;14.70;7.38;;;;;;;15.87;48.52;102825.34;5089275;28;20472;-79
2021/10/09 11:07:20;;;;;;;15.38;6.75;;;;;;;16.85;48.07;102858.06;5071616;28;20043;-79
2021/10/09 11:09:48;;;;;;;13.60;6.05;;;;;;;16.67;47.95;102849.94;5071486;28;20024;-79
2021/10/09 11:12:35;;;;;;;17.23;6.80;;;;;;;17.15;46.96;102856.84;5055022;28;20361;-79
2021/10/09 11:15:05;;;;;;;14.13;5.60;;;;;;;16.19;48.22;102835.72;5070515;28;20396;-79
2021/10/09 11:17:35;;;;;;;9.35;5.00;;;;;;;15.94;49.28;102842.63;5071436;28;20039;-79
2021/10/09 11:20:03;;;;;;;15.32;5.75;;;;;;;16.31;50.75;102874.09;5071245;28;20036;-79
2021/10/09 11:22:44;;;;;;;11.43;6.28;;;;;;;16.22;50.75;102875.88;5089302;28;20500;-79
2021/10/09 11:25:29;;;;;;;12.63;6.63;;;;;;;16.28;51.28;102876.25;5087978;28;20046;-78
2021/10/09 11:27:56;;;;;;;11.85;5.72;;;;;;;18.07;48.45;102897.91;5088115;28;20461;-79
2021/10/09 11:30:22;;;;;;;14.00;6.07;;;;;;;17.59;49.81;102878.50;5071043;28;20441;-79
2021/10/09 11:32:48;;;;;;;22.15;6.32;;;;;;;18.11;48.88;102881.22;5071414;28;20028;-78
2021/10/09 11:35:17;;;;;;;12.50;6.37;;;;;;;16.95;49.78;102844.50;5088747;28;20381;-78
2021/10/09 11:37:49;;;;;;;15.90;6.70;;;;;;;17.79;48.83;102859.38;5070774;28;20093;-79
2021/10/09 11:43:51;;;;;;;18.30;7.63;;;;;;;17.87;49.66;102872.97;5075281;28;20040;-79
2021/10/09 11:55:28;;;;;;;10.43;5.93;;;;;;;17.26;50.33;102856.63;5088174;28;20039;-79
2021/10/09 11:57:55;;;;;;;12.15;6.65;;;;;;;17.08;51.36;102866.56;5087548;28;20032;-79
2021/10/09 12:00:27;;;;;;;12.45;6.57;;;;;;;18.23;49.83;102878.25;5070313;28;20036;-80
2021/10/09 12:02:56;;;;;;;16.88;6.40;;;;;;;17.82;46.79;102813.19;5086759;28;20032;-78
2021/10/09 12:05:22;;;;;;;13.30;6.18;;;;;;;18.00;48.76;102861.72;5088029;28;20043;-79
2021/10/09 12:08:28;;;;;;;14.25;6.53;;;;;;;16.99;49.87;102829.72;5070014;28;20032;-79
2021/10/09 12:11:07;;;;;;;15.95;6.25;;;;;;;18.45;47.47;102839.81;5069965;28;20089;-80
2021/10/09 12:14:01;;;;;;;16.35;6.60;;;;;;;18.70;49.02;102856.09;5087021;28;20404;-79
2021/10/09 12:16:33;;;;;;;16.60;5.82;;;;;;;17.12;51.17;102850.94;5069980;28;20044;-80
2021/10/09 12:19:04;;;;;;;12.18;5.95;;;;;;;17.43;51.49;102864.88;5070403;28;20035;-79
2021/10/09 12:21:34;;;;;;;18.23;7.60;;;;;;;17.83;49.98;102858.09;5087034;28;20116;-78
2021/10/09 12:24:11;;;;;;;17.23;6.50;;;;;;;17.82;48.85;102845.59;5070012;28;20186;-79
2021/10/09 12:26:37;;;;;;;16.98;6.53;;;;;;;18.56;48.42;102858.44;5069697;28;20090;-78
2021/10/09 12:29:08;;;;;;;9.37;6.37;;;;;;;19.52;47.69;102859.75;5070139;28;20055;-79
2021/10/09 12:31:43;;;;;;;11.23;5.50;;;;;;;18.44;45.83;102792.13;5069932;28;20036;-78
2021/10/09 12:34:44;;;;;;;14.73;6.13;;;;;;;17.34;47.62;102791.03;5087491;28;20463;-78
2021/10/09 12:37:14;;;;;;;13.00;6.30;;;;;;;17.42;49.91;102823.53;4985817;28;20113;-79
2021/10/09 12:39:40;;;;;;;11.32;6.18;;;;;;;17.94;47.90;102809.19;5068442;28;20085;-78
2021/10/09 12:42:05;;;;;;;23.95;6.18;;;;;;;17.80;49.38;102831.38;5069858;28;20475;-78
2021/10/09 12:44:31;;;;;;;12.57;5.20;;;;;;;17.85;47.62;102802.03;5086518;28;20052;-78
2021/10/09 12:46:56;;;;;;;17.20;5.90;;;;;;;18.09;47.14;102806.72;5087391;28;20027;-78
2021/10/09 12:49:22;;;;;;;11.40;5.53;;;;;;;17.17;48.81;102798.19;5087303;28;20114;-78
2021/10/09 12:51:50;;;;;;;13.13;6.37;;;;;;;17.84;47.36;102801.19;5087488;28;20293;-77
2021/10/09 12:54:18;;;;;;;19.88;6.28;;;;;;;18.35;47.54;102817.47;5052600;28;20176;-78
2021/10/09 12:56:45;;;;;;;12.25;5.03;;;;;;;19.12;47.17;102818.13;5086376;28;20035;-78
2021/10/09 12:59:11;;;;;;;16.42;6.05;;;;;;;18.66;45.44;102768.16;5086124;28;20043;-78
2021/10/09 13:01:36;;;;;;;11.85;5.95;;;;;;;17.59;47.09;102762.34;5086585;28;20024;-77
2021/10/09 13:04:02;;;;;;;11.50;5.05;;;;;;;18.35;47.66;102810.22;5069050;28;20131;-77
2021/10/09 13:06:27;;;;;;;13.27;6.07;;;;;;;18.71;46.19;102806.41;5069836;28;20028;-77
2021/10/09 13:08:53;;;;;;;16.43;6.13;;;;;;;17.97;46.30;102765.63;5087295;28;20028;-77
2021/10/09 13:11:23;;;;;;;11.75;5.63;;;;;;;18.73;46.64;102797.13;5086998;28;20278;-77
2021/10/09 13:13:49;;;;;;;11.32;5.57;;;;;;;17.92;46.25;102757.16;5086438;28;20509;-77
2021/10/09 13:16:15;;;;;;;12.50;5.55;;;;;;;18.95;45.23;102778.56;5086241;28;20035;-77
2021/10/09 13:18:40;;;;;;;12.57;5.23;;;;;;;18.46;44.86;102757.66;5069342;28;20131;-77